首页
METAR-TAF:

METAR-TAF

机场 :

Needles Airport

Needles, 加利福尼亚州, 美国

纬度: 34-45-58N, 经度: 114-37-24W, 海拔: 300米

当前天气观测

该预报发布于53分钟前的07:56 UTC
风速5节,风向西北
温度 9°C
湿度 29%
气压 1025 hPa
能見度: 16.1公里
天空无云

METAR: KEED 180756Z AUTO 31005KT 10SM CLR 09/M08 A3026 RMK AO2 SLP235 T00941078 401830078

时间: 00:49 (08:49 UTC)

预报

该预报发布于3小时和23分钟前的05:26 UTC
预报有效从18日的 06点(UTC)到 19日的 06点(UTC)
风速7节,风向北转西北
能見度: 10公里
多云层高于25000英尺
从 18日的 1900点(UTC)
风速12节,风向,有时为18节阵风
能見度: 10公里
多云层高于25000英尺
从 19日的 0200点(UTC)
风速10节,风向北转西北
能見度: 10公里
少量云层高于15000英尺
多云层高于25000英尺

TAF: KEED 180526Z 1806/1906 33007KT P6SM BKN250 FM181900 01012G18KT P6SM BKN250 FM190200 34010KT P6SM FEW150 BKN250

超过4000个机场的气象观测和天气预报(METAR&TAF报告)。

可查询的气象台以黄色和红色小点在地图上表示。

将鼠标移到小点上方,可查看气象台名称。

然后点击查看天气观测和预报。

如需切换地图:点击带黑十字的绿色按钮放大地图;点击带横线的绿色按钮缩小地图;或者点击绿色箭头查看邻近地区的地图。


METAR-TAF: